sensor_id;sensor_type;location;lat;lon;timestamp;temperature;humidity
30290;DHT22;17105;55.652;37.710;2023-05-07T00:00:24;6.00;58.80
30290;DHT22;17105;55.652;37.710;2023-05-07T00:00:58;5.90;58.70
30290;DHT22;17105;55.652;37.710;2023-05-07T00:01:31;5.90;58.80
30290;DHT22;17105;55.652;37.710;2023-05-07T00:02:04;5.90;58.80
30290;DHT22;17105;55.652;37.710;2023-05-07T00:02:37;5.90;58.90
30290;DHT22;17105;55.652;37.710;2023-05-07T00:03:11;5.90;58.90
30290;DHT22;17105;55.652;37.710;2023-05-07T00:03:44;6.00;59.00
30290;DHT22;17105;55.652;37.710;2023-05-07T00:04:18;5.90;59.00
30290;DHT22;17105;55.652;37.710;2023-05-07T00:04:53;5.90;59.20
30290;DHT22;17105;55.652;37.710;2023-05-07T00:05:25;5.90;59.30
30290;DHT22;17105;55.652;37.710;2023-05-07T00:05:58;5.90;59.30
30290;DHT22;17105;55.652;37.710;2023-05-07T00:06:32;5.90;59.20
30290;DHT22;17105;55.652;37.710;2023-05-07T00:07:05;5.90;59.20
30290;DHT22;17105;55.652;37.710;2023-05-07T00:07:38;5.90;59.20
30290;DHT22;17105;55.652;37.710;2023-05-07T00:08:12;5.90;59.20
30290;DHT22;17105;55.652;37.710;2023-05-07T00:08:45;5.90;59.30
30290;DHT22;17105;55.652;37.710;2023-05-07T00:09:20;5.90;59.40
30290;DHT22;17105;55.652;37.710;2023-05-07T00:09:54;5.90;59.40
30290;DHT22;17105;55.652;37.710;2023-05-07T00:10:27;5.90;59.50
30290;DHT22;17105;55.652;37.710;2023-05-07T00:11:00;5.80;59.40
30290;DHT22;17105;55.652;37.710;2023-05-07T00:11:34;5.80;59.40
30290;DHT22;17105;55.652;37.710;2023-05-07T00:12:08;5.80;59.30
30290;DHT22;17105;55.652;37.710;2023-05-07T00:12:41;5.80;59.30
30290;DHT22;17105;55.652;37.710;2023-05-07T00:13:15;5.80;59.40
30290;DHT22;17105;55.652;37.710;2023-05-07T00:13:49;5.80;59.40
30290;DHT22;17105;55.652;37.710;2023-05-07T00:14:23;5.80;59.40
30290;DHT22;17105;55.652;37.710;2023-05-07T00:14:57;5.80;59.50
30290;DHT22;17105;55.652;37.710;2023-05-07T00:15:30;5.80;59.60
30290;DHT22;17105;55.652;37.710;2023-05-07T00:16:03;5.80;59.60
30290;DHT22;17105;55.652;37.710;2023-05-07T00:16:35;5.80;59.60
30290;DHT22;17105;55.652;37.710;2023-05-07T00:17:09;5.70;59.60
30290;DHT22;17105;55.652;37.710;2023-05-07T00:17:42;5.80;59.70
30290;DHT22;17105;55.652;37.710;2023-05-07T00:18:15;5.80;59.70
30290;DHT22;17105;55.652;37.710;2023-05-07T00:18:48;5.70;59.70
30290;DHT22;17105;55.652;37.710;2023-05-07T00:19:21;5.70;59.60
30290;DHT22;17105;55.652;37.710;2023-05-07T00:19:54;5.80;59.80
30290;DHT22;17105;55.652;37.710;2023-05-07T00:20:26;5.80;59.80
30290;DHT22;17105;55.652;37.710;2023-05-07T00:21:00;5.80;59.80
30290;DHT22;17105;55.652;37.710;2023-05-07T00:21:33;5.70;60.30
30290;DHT22;17105;55.652;37.710;2023-05-07T00:22:06;5.70;59.80
30290;DHT22;17105;55.652;37.710;2023-05-07T00:22:40;5.70;59.80
30290;DHT22;17105;55.652;37.710;2023-05-07T00:23:13;5.70;59.80
30290;DHT22;17105;55.652;37.710;2023-05-07T00:23:45;5.70;60.30
30290;DHT22;17105;55.652;37.710;2023-05-07T00:24:20;5.70;59.80
30290;DHT22;17105;55.652;37.710;2023-05-07T00:24:53;5.70;59.90
30290;DHT22;17105;55.652;37.710;2023-05-07T00:25:26;5.70;60.00
30290;DHT22;17105;55.652;37.710;2023-05-07T00:26:00;5.70;59.90
30290;DHT22;17105;55.652;37.710;2023-05-07T00:26:33;5.70;59.90
30290;DHT22;17105;55.652;37.710;2023-05-07T00:27:05;5.70;60.00
30290;DHT22;17105;55.652;37.710;2023-05-07T00:27:39;5.70;60.00
30290;DHT22;17105;55.652;37.710;2023-05-07T00:28:12;5.70;60.00
30290;DHT22;17105;55.652;37.710;2023-05-07T00:28:44;5.70;60.10
30290;DHT22;17105;55.652;37.710;2023-05-07T00:29:20;5.70;60.20
30290;DHT22;17105;55.652;37.710;2023-05-07T00:29:53;5.70;60.10
30290;DHT22;17105;55.652;37.710;2023-05-07T00:30:26;5.70;60.10
30290;DHT22;17105;55.652;37.710;2023-05-07T00:31:00;5.70;60.10
30290;DHT22;17105;55.652;37.710;2023-05-07T00:31:33;5.70;60.00
30290;DHT22;17105;55.652;37.710;2023-05-07T00:32:05;5.70;60.10
30290;DHT22;17105;55.652;37.710;2023-05-07T00:32:39;5.70;60.20
30290;DHT22;17105;55.652;37.710;2023-05-07T00:33:12;5.70;60.20
30290;DHT22;17105;55.652;37.710;2023-05-07T00:33:44;5.70;60.30
30290;DHT22;17105;55.652;37.710;2023-05-07T00:34:20;5.60;60.30
30290;DHT22;17105;55.652;37.710;2023-05-07T00:34:52;5.70;60.40
30290;DHT22;17105;55.652;37.710;2023-05-07T00:35:25;5.70;60.40
30290;DHT22;17105;55.652;37.710;2023-05-07T00:35:59;5.60;60.40
30290;DHT22;17105;55.652;37.710;2023-05-07T00:36:34;5.70;60.50
30290;DHT22;17105;55.652;37.710;2023-05-07T00:37:06;5.70;60.40
30290;DHT22;17105;55.652;37.710;2023-05-07T00:37:41;5.60;60.40
30290;DHT22;17105;55.652;37.710;2023-05-07T00:38:13;5.60;60.60
30290;DHT22;17105;55.652;37.710;2023-05-07T00:38:48;5.60;60.60
30290;DHT22;17105;55.652;37.710;2023-05-07T00:39:21;5.60;60.50
30290;DHT22;17105;55.652;37.710;2023-05-07T00:39:54;5.60;60.50
30290;DHT22;17105;55.652;37.710;2023-05-07T00:40:27;5.60;60.50
30290;DHT22;17105;55.652;37.710;2023-05-07T00:41:01;5.60;60.60
30290;DHT22;17105;55.652;37.710;2023-05-07T00:41:34;5.60;60.60
30290;DHT22;17105;55.652;37.710;2023-05-07T00:42:07;5.60;60.70
30290;DHT22;17105;55.652;37.710;2023-05-07T00:42:41;5.60;60.70
30290;DHT22;17105;55.652;37.710;2023-05-07T00:43:14;5.60;60.70
30290;DHT22;17105;55.652;37.710;2023-05-07T00:43:48;5.60;60.70
30290;DHT22;17105;55.652;37.710;2023-05-07T00:44:23;5.60;60.70
30290;DHT22;17105;55.652;37.710;2023-05-07T00:44:57;5.60;60.70
30290;DHT22;17105;55.652;37.710;2023-05-07T00:45:30;5.50;60.60
30290;DHT22;17105;55.652;37.710;2023-05-07T00:46:04;5.60;60.70
30290;DHT22;17105;55.652;37.710;2023-05-07T00:46:37;5.60;60.70
30290;DHT22;17105;55.652;37.710;2023-05-07T00:47:10;5.60;60.70
30290;DHT22;17105;55.652;37.710;2023-05-07T00:47:45;5.60;60.80
30290;DHT22;17105;55.652;37.710;2023-05-07T00:48:18;5.60;60.90
30290;DHT22;17105;55.652;37.710;2023-05-07T00:48:51;5.60;60.80
30290;DHT22;17105;55.652;37.710;2023-05-07T00:49:31;5.60;60.90
30290;DHT22;17105;55.652;37.710;2023-05-07T00:50:09;5.50;60.90
30290;DHT22;17105;55.652;37.710;2023-05-07T00:50:43;5.60;61.10
30290;DHT22;17105;55.652;37.710;2023-05-07T00:51:17;5.60;61.10
30290;DHT22;17105;55.652;37.710;2023-05-07T00:51:50;5.60;61.10
30290;DHT22;17105;55.652;37.710;2023-05-07T00:52:25;5.50;61.10
30290;DHT22;17105;55.652;37.710;2023-05-07T00:52:59;5.50;61.10
30290;DHT22;17105;55.652;37.710;2023-05-07T00:53:32;5.50;61.00
30290;DHT22;17105;55.652;37.710;2023-05-07T00:54:05;5.50;61.00
30290;DHT22;17105;55.652;37.710;2023-05-07T00:54:40;5.50;61.10
30290;DHT22;17105;55.652;37.710;2023-05-07T00:55:13;5.50;61.20
30290;DHT22;17105;55.652;37.710;2023-05-07T00:55:46;5.50;61.30
30290;DHT22;17105;55.652;37.710;2023-05-07T00:56:20;5.50;61.30
30290;DHT22;17105;55.652;37.710;2023-05-07T00:56:55;5.50;61.30
30290;DHT22;17105;55.652;37.710;2023-05-07T00:57:28;5.50;61.30
30290;DHT22;17105;55.652;37.710;2023-05-07T00:58:01;5.50;61.40
30290;DHT22;17105;55.652;37.710;2023-05-07T00:58:35;5.50;61.50
30290;DHT22;17105;55.652;37.710;2023-05-07T00:59:08;5.50;61.50
30290;DHT22;17105;55.652;37.710;2023-05-07T00:59:41;5.50;61.50
30290;DHT22;17105;55.652;37.710;2023-05-07T01:00:16;5.50;61.40
30290;DHT22;17105;55.652;37.710;2023-05-07T01:00:50;5.50;62.00
30290;DHT22;17105;55.652;37.710;2023-05-07T01:01:22;5.40;61.40
30290;DHT22;17105;55.652;37.710;2023-05-07T01:01:59;5.40;61.40
30290;DHT22;17105;55.652;37.710;2023-05-07T01:02:32;5.40;61.50
30290;DHT22;17105;55.652;37.710;2023-05-07T01:03:05;5.40;61.50
30290;DHT22;17105;55.652;37.710;2023-05-07T01:03:39;5.40;61.60
30290;DHT22;17105;55.652;37.710;2023-05-07T01:04:13;5.40;61.70
30290;DHT22;17105;55.652;37.710;2023-05-07T01:04:45;5.40;61.80
30290;DHT22;17105;55.652;37.710;2023-05-07T01:05:20;5.40;61.80
30290;DHT22;17105;55.652;37.710;2023-05-07T01:05:56;5.40;61.80
30290;DHT22;17105;55.652;37.710;2023-05-07T01:06:32;5.40;61.80
30290;DHT22;17105;55.652;37.710;2023-05-07T01:07:06;5.40;61.70
30290;DHT22;17105;55.652;37.710;2023-05-07T01:07:40;5.40;61.80
30290;DHT22;17105;55.652;37.710;2023-05-07T01:08:15;5.40;61.80
30290;DHT22;17105;55.652;37.710;2023-05-07T01:08:49;5.40;61.80
30290;DHT22;17105;55.652;37.710;2023-05-07T01:09:23;5.40;61.90
30290;DHT22;17105;55.652;37.710;2023-05-07T01:09:58;5.30;61.80
30290;DHT22;17105;55.652;37.710;2023-05-07T01:10:31;5.30;61.80
30290;DHT22;17105;55.652;37.710;2023-05-07T01:11:03;5.30;61.90
30290;DHT22;17105;55.652;37.710;2023-05-07T01:11:38;5.30;62.00
30290;DHT22;17105;55.652;37.710;2023-05-07T01:12:11;5.30;61.90
30290;DHT22;17105;55.652;37.710;2023-05-07T01:12:45;5.30;61.80
30290;DHT22;17105;55.652;37.710;2023-05-07T01:13:20;5.30;61.90
30290;DHT22;17105;55.652;37.710;2023-05-07T01:13:53;5.30;61.90
30290;DHT22;17105;55.652;37.710;2023-05-07T01:14:27;5.30;62.00
30290;DHT22;17105;55.652;37.710;2023-05-07T01:15:02;5.30;61.90
30290;DHT22;17105;55.652;37.710;2023-05-07T01:15:36;5.30;62.00
30290;DHT22;17105;55.652;37.710;2023-05-07T01:16:10;5.30;62.10
30290;DHT22;17105;55.652;37.710;2023-05-07T01:16:44;5.30;62.10
30290;DHT22;17105;55.652;37.710;2023-05-07T01:17:17;5.30;62.10
30290;DHT22;17105;55.652;37.710;2023-05-07T01:17:51;5.30;62.10
30290;DHT22;17105;55.652;37.710;2023-05-07T01:18:31;5.30;62.10
30290;DHT22;17105;55.652;37.710;2023-05-07T01:19:05;5.30;62.00
30290;DHT22;17105;55.652;37.710;2023-05-07T01:19:38;5.30;62.10
30290;DHT22;17105;55.652;37.710;2023-05-07T01:20:11;5.30;62.20
30290;DHT22;17105;55.652;37.710;2023-05-07T01:20:46;5.30;62.20
30290;DHT22;17105;55.652;37.710;2023-05-07T01:21:25;5.30;62.30
30290;DHT22;17105;55.652;37.710;2023-05-07T01:22:09;5.30;62.10
30290;DHT22;17105;55.652;37.710;2023-05-07T01:22:53;5.30;62.10
30290;DHT22;17105;55.652;37.710;2023-05-07T01:23:28;5.30;62.10
30290;DHT22;17105;55.652;37.710;2023-05-07T01:24:01;5.30;62.10
30290;DHT22;17105;55.652;37.710;2023-05-07T01:24:37;5.30;62.10
30290;DHT22;17105;55.652;37.710;2023-05-07T01:25:12;5.30;62.10
30290;DHT22;17105;55.652;37.710;2023-05-07T01:25:53;5.30;62.00
30290;DHT22;17105;55.652;37.710;2023-05-07T01:26:29;5.30;62.10
30290;DHT22;17105;55.652;37.710;2023-05-07T01:27:02;5.30;62.20
30290;DHT22;17105;55.652;37.710;2023-05-07T01:27:37;5.30;62.30
30290;DHT22;17105;55.652;37.710;2023-05-07T01:28:09;5.30;62.30
30290;DHT22;17105;55.652;37.710;2023-05-07T01:28:47;5.30;62.20
30290;DHT22;17105;55.652;37.710;2023-05-07T01:29:20;5.30;62.30
30290;DHT22;17105;55.652;37.710;2023-05-07T01:29:53;5.30;62.30
30290;DHT22;17105;55.652;37.710;2023-05-07T01:30:28;5.30;62.30
30290;DHT22;17105;55.652;37.710;2023-05-07T01:31:03;5.30;62.40
30290;DHT22;17105;55.652;37.710;2023-05-07T01:31:40;5.30;62.40
30290;DHT22;17105;55.652;37.710;2023-05-07T01:32:16;5.30;62.40
30290;DHT22;17105;55.652;37.710;2023-05-07T01:32:59;5.30;62.40
30290;DHT22;17105;55.652;37.710;2023-05-07T01:33:34;5.30;62.40
30290;DHT22;17105;55.652;37.710;2023-05-07T01:34:10;5.30;62.40
30290;DHT22;17105;55.652;37.710;2023-05-07T01:34:44;5.30;62.30
30290;DHT22;17105;55.652;37.710;2023-05-07T01:35:19;5.30;62.30
30290;DHT22;17105;55.652;37.710;2023-05-07T01:35:54;5.30;62.30
30290;DHT22;17105;55.652;37.710;2023-05-07T01:36:28;5.30;62.30
30290;DHT22;17105;55.652;37.710;2023-05-07T01:37:02;5.30;62.40
30290;DHT22;17105;55.652;37.710;2023-05-07T01:37:37;5.30;62.40
30290;DHT22;17105;55.652;37.710;2023-05-07T01:38:11;5.20;62.40
30290;DHT22;17105;55.652;37.710;2023-05-07T01:38:44;5.20;62.40
30290;DHT22;17105;55.652;37.710;2023-05-07T01:39:20;5.30;62.40
30290;DHT22;17105;55.652;37.710;2023-05-07T01:39:53;5.30;62.50
30290;DHT22;17105;55.652;37.710;2023-05-07T01:40:27;5.30;62.50
30290;DHT22;17105;55.652;37.710;2023-05-07T01:41:01;5.30;62.50
30290;DHT22;17105;55.652;37.710;2023-05-07T01:41:34;5.20;62.40
30290;DHT22;17105;55.652;37.710;2023-05-07T01:42:07;5.30;62.40
30290;DHT22;17105;55.652;37.710;2023-05-07T01:42:43;5.30;62.50
30290;DHT22;17105;55.652;37.710;2023-05-07T01:43:16;5.30;62.40
30290;DHT22;17105;55.652;37.710;2023-05-07T01:43:51;5.20;62.40
30290;DHT22;17105;55.652;37.710;2023-05-07T01:44:26;5.20;62.30
30290;DHT22;17105;55.652;37.710;2023-05-07T01:44:59;5.20;62.40
30290;DHT22;17105;55.652;37.710;2023-05-07T01:45:32;5.20;62.50
30290;DHT22;17105;55.652;37.710;2023-05-07T01:46:08;5.20;62.50
30290;DHT22;17105;55.652;37.710;2023-05-07T01:46:42;5.30;62.50
30290;DHT22;17105;55.652;37.710;2023-05-07T01:47:15;5.30;62.60
30290;DHT22;17105;55.652;37.710;2023-05-07T01:47:49;5.30;62.60
30290;DHT22;17105;55.652;37.710;2023-05-07T01:48:22;5.20;62.50
30290;DHT22;17105;55.652;37.710;2023-05-07T01:48:56;5.30;62.60
30290;DHT22;17105;55.652;37.710;2023-05-07T01:49:30;5.20;62.60
30290;DHT22;17105;55.652;37.710;2023-05-07T01:50:04;5.20;62.60
30290;DHT22;17105;55.652;37.710;2023-05-07T01:50:37;5.20;62.60
30290;DHT22;17105;55.652;37.710;2023-05-07T01:51:11;5.30;62.60
30290;DHT22;17105;55.652;37.710;2023-05-07T01:51:44;5.20;62.60
30290;DHT22;17105;55.652;37.710;2023-05-07T01:52:17;5.20;62.70
30290;DHT22;17105;55.652;37.710;2023-05-07T01:52:51;5.20;62.70
30290;DHT22;17105;55.652;37.710;2023-05-07T01:53:27;5.20;62.70
30290;DHT22;17105;55.652;37.710;2023-05-07T01:54:00;5.20;62.80
30290;DHT22;17105;55.652;37.710;2023-05-07T01:54:33;5.20;62.80
30290;DHT22;17105;55.652;37.710;2023-05-07T01:55:07;5.20;62.80
30290;DHT22;17105;55.652;37.710;2023-05-07T01:55:40;5.20;62.80
30290;DHT22;17105;55.652;37.710;2023-05-07T01:56:14;5.20;62.80
30290;DHT22;17105;55.652;37.710;2023-05-07T01:56:47;5.20;62.90
30290;DHT22;17105;55.652;37.710;2023-05-07T01:57:21;5.20;63.00
30290;DHT22;17105;55.652;37.710;2023-05-07T01:57:54;5.20;63.00
30290;DHT22;17105;55.652;37.710;2023-05-07T01:58:28;5.20;63.00
30290;DHT22;17105;55.652;37.710;2023-05-07T01:59:00;5.20;62.90
30290;DHT22;17105;55.652;37.710;2023-05-07T01:59:34;5.20;62.90
30290;DHT22;17105;55.652;37.710;2023-05-07T02:00:07;5.20;62.90
30290;DHT22;17105;55.652;37.710;2023-05-07T02:00:49;5.20;62.90
30290;DHT22;17105;55.652;37.710;2023-05-07T02:01:21;5.20;62.90
30290;DHT22;17105;55.652;37.710;2023-05-07T02:01:54;5.20;63.00
30290;DHT22;17105;55.652;37.710;2023-05-07T02:02:28;5.20;63.00
30290;DHT22;17105;55.652;37.710;2023-05-07T02:03:03;5.20;63.00
30290;DHT22;17105;55.652;37.710;2023-05-07T02:03:48;5.20;63.00
30290;DHT22;17105;55.652;37.710;2023-05-07T02:04:27;5.20;63.00
30290;DHT22;17105;55.652;37.710;2023-05-07T02:05:00;5.20;63.10
30290;DHT22;17105;55.652;37.710;2023-05-07T02:05:33;5.20;63.20
30290;DHT22;17105;55.652;37.710;2023-05-07T02:06:16;5.30;63.30
30290;DHT22;17105;55.652;37.710;2023-05-07T02:06:49;5.30;63.40
30290;DHT22;17105;55.652;37.710;2023-05-07T02:07:22;5.30;63.40
30290;DHT22;17105;55.652;37.710;2023-05-07T02:07:55;5.30;63.20
30290;DHT22;17105;55.652;37.710;2023-05-07T02:08:31;5.30;63.10
30290;DHT22;17105;55.652;37.710;2023-05-07T02:09:05;5.30;63.10
30290;DHT22;17105;55.652;37.710;2023-05-07T02:09:38;5.30;63.20
30290;DHT22;17105;55.652;37.710;2023-05-07T02:10:11;5.30;63.10
30290;DHT22;17105;55.652;37.710;2023-05-07T02:10:44;5.30;63.20
30290;DHT22;17105;55.652;37.710;2023-05-07T02:11:18;5.20;63.20
30290;DHT22;17105;55.652;37.710;2023-05-07T02:11:51;5.20;63.10
30290;DHT22;17105;55.652;37.710;2023-05-07T02:12:25;5.20;63.10
30290;DHT22;17105;55.652;37.710;2023-05-07T02:12:58;5.20;63.10
30290;DHT22;17105;55.652;37.710;2023-05-07T02:13:34;5.20;63.00
30290;DHT22;17105;55.652;37.710;2023-05-07T02:14:07;5.20;63.10
30290;DHT22;17105;55.652;37.710;2023-05-07T02:14:40;5.20;63.10
30290;DHT22;17105;55.652;37.710;2023-05-07T02:47:14;6.00;62.30
30290;DHT22;17105;55.652;37.710;2023-05-07T02:47:48;6.00;62.70
30290;DHT22;17105;55.652;37.710;2023-05-07T02:48:21;6.00;62.70
30290;DHT22;17105;55.652;37.710;2023-05-07T02:48:55;6.00;62.70
30290;DHT22;17105;55.652;37.710;2023-05-07T02:49:27;6.00;62.70
30290;DHT22;17105;55.652;37.710;2023-05-07T02:50:01;6.10;62.80
30290;DHT22;17105;55.652;37.710;2023-05-07T02:50:34;6.10;62.70
30290;DHT22;17105;55.652;37.710;2023-05-07T02:51:07;6.20;62.60
30290;DHT22;17105;55.652;37.710;2023-05-07T02:51:43;6.20;62.50
30290;DHT22;17105;55.652;37.710;2023-05-07T02:52:22;6.20;62.40
30290;DHT22;17105;55.652;37.710;2023-05-07T02:52:55;6.20;62.30
30290;DHT22;17105;55.652;37.710;2023-05-07T02:53:29;6.20;62.20
30290;DHT22;17105;55.652;37.710;2023-05-07T02:54:01;6.20;62.20
30290;DHT22;17105;55.652;37.710;2023-05-07T02:54:37;6.30;62.20
30290;DHT22;17105;55.652;37.710;2023-05-07T02:55:11;6.30;62.10
30290;DHT22;17105;55.652;37.710;2023-05-07T02:55:44;6.30;62.10
30290;DHT22;17105;55.652;37.710;2023-05-07T02:56:16;6.30;62.00
30290;DHT22;17105;55.652;37.710;2023-05-07T02:56:50;6.30;62.00
30290;DHT22;17105;55.652;37.710;2023-05-07T02:57:23;6.40;61.90
30290;DHT22;17105;55.652;37.710;2023-05-07T02:57:56;6.40;61.80
30290;DHT22;17105;55.652;37.710;2023-05-07T02:58:30;6.40;61.70
30290;DHT22;17105;55.652;37.710;2023-05-07T02:59:05;6.40;61.50
30290;DHT22;17105;55.652;37.710;2023-05-07T02:59:42;6.40;61.40
30290;DHT22;17105;55.652;37.710;2023-05-07T03:00:19;6.50;61.50
30290;DHT22;17105;55.652;37.710;2023-05-07T03:01:09;6.50;61.60
30290;DHT22;17105;55.652;37.710;2023-05-07T03:01:52;6.60;61.60
30290;DHT22;17105;55.652;37.710;2023-05-07T03:02:26;6.60;61.50
30290;DHT22;17105;55.652;37.710;2023-05-07T03:02:59;6.60;61.30
30290;DHT22;17105;55.652;37.710;2023-05-07T03:03:32;6.60;61.20
30290;DHT22;17105;55.652;37.710;2023-05-07T03:04:05;6.60;61.10
30290;DHT22;17105;55.652;37.710;2023-05-07T03:04:39;6.60;60.80
30290;DHT22;17105;55.652;37.710;2023-05-07T03:05:12;6.60;60.80
30290;DHT22;17105;55.652;37.710;2023-05-07T03:05:46;6.70;60.80
30290;DHT22;17105;55.652;37.710;2023-05-07T03:06:19;6.70;60.80
30290;DHT22;17105;55.652;37.710;2023-05-07T03:06:52;6.70;60.80
30290;DHT22;17105;55.652;37.710;2023-05-07T03:07:25;6.70;60.70
30290;DHT22;17105;55.652;37.710;2023-05-07T03:07:58;6.70;60.60
30290;DHT22;17105;55.652;37.710;2023-05-07T03:08:30;6.80;60.70
30290;DHT22;17105;55.652;37.710;2023-05-07T03:09:04;6.80;60.80
30290;DHT22;17105;55.652;37.710;2023-05-07T03:09:38;6.80;60.70
30290;DHT22;17105;55.652;37.710;2023-05-07T03:10:11;6.80;60.50
30290;DHT22;17105;55.652;37.710;2023-05-07T03:10:45;6.80;60.40
30290;DHT22;17105;55.652;37.710;2023-05-07T03:11:17;6.80;60.30
30290;DHT22;17105;55.652;37.710;2023-05-07T03:11:50;6.80;60.70
30290;DHT22;17105;55.652;37.710;2023-05-07T03:12:24;6.80;60.10
30290;DHT22;17105;55.652;37.710;2023-05-07T03:12:57;6.90;60.10
30290;DHT22;17105;55.652;37.710;2023-05-07T03:13:30;6.90;60.00
30290;DHT22;17105;55.652;37.710;2023-05-07T03:14:04;6.90;60.00
30290;DHT22;17105;55.652;37.710;2023-05-07T03:14:36;6.90;60.00
30290;DHT22;17105;55.652;37.710;2023-05-07T03:15:10;7.00;60.00
30290;DHT22;17105;55.652;37.710;2023-05-07T03:15:44;7.00;59.80
30290;DHT22;17105;55.652;37.710;2023-05-07T03:16:17;7.00;59.80
30290;DHT22;17105;55.652;37.710;2023-05-07T03:16:50;7.00;59.90
30290;DHT22;17105;55.652;37.710;2023-05-07T03:17:23;7.00;59.90
30290;DHT22;17105;55.652;37.710;2023-05-07T03:17:56;7.10;60.50
30290;DHT22;17105;55.652;37.710;2023-05-07T03:18:30;7.10;59.90
30290;DHT22;17105;55.652;37.710;2023-05-07T03:19:03;7.20;59.70
30290;DHT22;17105;55.652;37.710;2023-05-07T03:19:37;7.20;59.60
30290;DHT22;17105;55.652;37.710;2023-05-07T03:20:10;7.20;59.70
30290;DHT22;17105;55.652;37.710;2023-05-07T03:20:44;7.20;59.80
30290;DHT22;17105;55.652;37.710;2023-05-07T03:21:18;7.30;59.40
30290;DHT22;17105;55.652;37.710;2023-05-07T03:21:51;7.30;59.30
30290;DHT22;17105;55.652;37.710;2023-05-07T03:22:25;7.30;59.20
30290;DHT22;17105;55.652;37.710;2023-05-07T03:22:58;7.30;59.10
30290;DHT22;17105;55.652;37.710;2023-05-07T03:23:31;7.30;59.10
30290;DHT22;17105;55.652;37.710;2023-05-07T03:24:05;7.30;59.10
30290;DHT22;17105;55.652;37.710;2023-05-07T03:24:39;7.30;59.10
30290;DHT22;17105;55.652;37.710;2023-05-07T03:25:13;7.30;59.10
30290;DHT22;17105;55.652;37.710;2023-05-07T03:25:47;7.30;59.00
30290;DHT22;17105;55.652;37.710;2023-05-07T03:26:19;7.30;58.90
30290;DHT22;17105;55.652;37.710;2023-05-07T03:26:53;7.30;59.00
30290;DHT22;17105;55.652;37.710;2023-05-07T03:27:29;7.40;59.00
30290;DHT22;17105;55.652;37.710;2023-05-07T03:28:02;7.40;58.90
30290;DHT22;17105;55.652;37.710;2023-05-07T03:28:44;7.40;58.70
30290;DHT22;17105;55.652;37.710;2023-05-07T03:29:20;7.50;58.60
30290;DHT22;17105;55.652;37.710;2023-05-07T03:29:53;7.50;58.50
30290;DHT22;17105;55.652;37.710;2023-05-07T03:30:27;7.50;58.40
30290;DHT22;17105;55.652;37.710;2023-05-07T03:31:00;7.50;58.30
30290;DHT22;17105;55.652;37.710;2023-05-07T03:31:34;7.50;58.40
30290;DHT22;17105;55.652;37.710;2023-05-07T03:32:08;7.50;58.30
30290;DHT22;17105;55.652;37.710;2023-05-07T03:32:41;7.50;58.30
30290;DHT22;17105;55.652;37.710;2023-05-07T03:33:16;7.50;58.30
30290;DHT22;17105;55.652;37.710;2023-05-07T03:33:51;7.50;58.20
30290;DHT22;17105;55.652;37.710;2023-05-07T03:34:24;7.60;58.10
30290;DHT22;17105;55.652;37.710;2023-05-07T03:34:57;7.60;58.10
30290;DHT22;17105;55.652;37.710;2023-05-07T03:35:31;7.60;58.10
30290;DHT22;17105;55.652;37.710;2023-05-07T03:36:04;7.50;58.00
30290;DHT22;17105;55.652;37.710;2023-05-07T03:36:38;7.60;58.10
30290;DHT22;17105;55.652;37.710;2023-05-07T03:37:14;7.60;58.10
30290;DHT22;17105;55.652;37.710;2023-05-07T03:37:47;7.60;58.00
30290;DHT22;17105;55.652;37.710;2023-05-07T03:38:22;7.60;58.00
30290;DHT22;17105;55.652;37.710;2023-05-07T03:38:55;7.60;58.00
30290;DHT22;17105;55.652;37.710;2023-05-07T03:39:30;7.60;58.10
30290;DHT22;17105;55.652;37.710;2023-05-07T03:40:07;7.60;58.00
30290;DHT22;17105;55.652;37.710;2023-05-07T03:40:50;7.60;58.20
30290;DHT22;17105;55.652;37.710;2023-05-07T03:41:24;7.60;58.20
30290;DHT22;17105;55.652;37.710;2023-05-07T03:41:58;7.60;58.10
30290;DHT22;17105;55.652;37.710;2023-05-07T03:42:31;7.60;58.20
30290;DHT22;17105;55.652;37.710;2023-05-07T03:43:05;7.60;58.20
30290;DHT22;17105;55.652;37.710;2023-05-07T03:43:41;7.60;58.00
30290;DHT22;17105;55.652;37.710;2023-05-07T03:44:17;7.60;58.10
30290;DHT22;17105;55.652;37.710;2023-05-07T03:44:51;7.70;58.20
30290;DHT22;17105;55.652;37.710;2023-05-07T03:45:24;7.60;58.10
30290;DHT22;17105;55.652;37.710;2023-05-07T03:46:06;7.60;58.00
30290;DHT22;17105;55.652;37.710;2023-05-07T03:46:40;7.70;58.00
30290;DHT22;17105;55.652;37.710;2023-05-07T03:47:14;7.70;57.90
30290;DHT22;17105;55.652;37.710;2023-05-07T03:47:48;7.70;57.80
30290;DHT22;17105;55.652;37.710;2023-05-07T03:48:25;7.70;57.80
30290;DHT22;17105;55.652;37.710;2023-05-07T03:49:01;7.70;57.90
30290;DHT22;17105;55.652;37.710;2023-05-07T03:49:34;7.70;57.80
30290;DHT22;17105;55.652;37.710;2023-05-07T03:50:09;7.70;57.70
30290;DHT22;17105;55.652;37.710;2023-05-07T03:50:43;7.70;57.50
30290;DHT22;17105;55.652;37.710;2023-05-07T03:51:16;7.80;57.60
30290;DHT22;17105;55.652;37.710;2023-05-07T03:51:49;7.70;57.60
30290;DHT22;17105;55.652;37.710;2023-05-07T03:52:22;7.70;57.60
30290;DHT22;17105;55.652;37.710;2023-05-07T03:53:01;7.80;57.60
30290;DHT22;17105;55.652;37.710;2023-05-07T03:53:36;7.80;57.70
30290;DHT22;17105;55.652;37.710;2023-05-07T03:54:09;7.80;57.70
30290;DHT22;17105;55.652;37.710;2023-05-07T03:54:47;7.80;57.70
30290;DHT22;17105;55.652;37.710;2023-05-07T03:55:23;7.80;57.80
30290;DHT22;17105;55.652;37.710;2023-05-07T03:56:00;7.80;57.80
30290;DHT22;17105;55.652;37.710;2023-05-07T03:56:37;7.80;57.70
30290;DHT22;17105;55.652;37.710;2023-05-07T03:57:11;7.90;57.60
30290;DHT22;17105;55.652;37.710;2023-05-07T03:57:44;7.90;57.60
30290;DHT22;17105;55.652;37.710;2023-05-07T03:58:17;7.90;57.60
30290;DHT22;17105;55.652;37.710;2023-05-07T03:58:51;7.90;57.50
30290;DHT22;17105;55.652;37.710;2023-05-07T03:59:26;7.90;57.50
30290;DHT22;17105;55.652;37.710;2023-05-07T03:59:58;7.90;57.50
30290;DHT22;17105;55.652;37.710;2023-05-07T04:00:36;8.00;57.50
30290;DHT22;17105;55.652;37.710;2023-05-07T04:01:20;8.00;57.20
30290;DHT22;17105;55.652;37.710;2023-05-07T04:01:53;8.00;57.40
30290;DHT22;17105;55.652;37.710;2023-05-07T04:02:29;8.00;57.20
30290;DHT22;17105;55.652;37.710;2023-05-07T04:03:03;8.10;57.10
30290;DHT22;17105;55.652;37.710;2023-05-07T04:03:36;8.10;57.00
30290;DHT22;17105;55.652;37.710;2023-05-07T04:04:10;8.10;57.00
30290;DHT22;17105;55.652;37.710;2023-05-07T04:04:43;8.10;56.90
30290;DHT22;17105;55.652;37.710;2023-05-07T04:05:16;8.20;57.10
30290;DHT22;17105;55.652;37.710;2023-05-07T04:05:51;8.20;56.60
30290;DHT22;17105;55.652;37.710;2023-05-07T04:06:26;8.30;57.10
30290;DHT22;17105;55.652;37.710;2023-05-07T04:07:00;8.40;57.20
30290;DHT22;17105;55.652;37.710;2023-05-07T04:07:34;8.50;57.40
30290;DHT22;17105;55.652;37.710;2023-05-07T04:08:08;8.60;57.60